Time;durP1;ratioP1;P1;durP2;ratioP2;P2;SDS_P1;SDS_P2;PMS_P1;PMS_P2;Temp;Humidity;BMP_temperature;BMP_pressure;BME280_temperature;BME280_humidity;BME280_pressure;Samples;Min_cycle;Max_cycle;Signal;HPM_P1;HPM_P2
2022/09/26 00:01:13;;;;;;;;;;;;;;;21.76;61.31;100662.84;7405798;19;1533;-65
2022/09/26 00:03:44;;;;;;;;;;;;;;;21.73;61.12;100665.03;7406213;19;1294;-56
2022/09/26 00:06:15;;;;;;;;;;;;;;;21.74;61.15;100669.38;7406515;19;1585;-57
2022/09/26 00:08:43;;;;;;;;;;;;;;;21.74;61.46;100664.84;7406900;19;1529;-56
2022/09/26 00:11:13;;;;;;;;;;;;;;;21.79;61.14;100659.84;7405251;19;1451;-56
2022/09/26 00:13:43;;;;;;;;;;;;;;;21.75;61.33;100663.84;7405075;19;1870;-65
2022/09/26 00:16:14;;;;;;;;;;;;;;;21.78;60.98;100660.81;7405235;19;1423;-65
2022/09/26 00:18:43;;;;;;;;;;;;;;;21.80;61.14;100661.53;7406497;19;1319;-56
2022/09/26 00:21:12;;;;;;;;;;;;;;;21.76;61.31;100654.75;7405146;19;1608;-56
2022/09/26 00:23:41;;;;;;;;;;;;;;;21.77;61.01;100650.25;7404857;19;1383;-65
2022/09/26 00:26:10;;;;;;;;;;;;;;;21.75;61.10;100653.09;7403706;19;1415;-65
2022/09/26 00:28:38;;;;;;;;;;;;;;;21.71;61.12;100646.31;7405062;19;1347;-65
2022/09/26 00:31:07;;;;;;;;;;;;;;;21.73;61.18;100638.94;7404924;19;1435;-65
2022/09/26 00:33:38;;;;;;;;;;;;;;;21.78;61.03;100657.31;7404943;19;1853;-65
2022/09/26 00:36:07;;;;;;;;;;;;;;;21.71;60.87;100635.56;7405523;19;1636;-65
2022/09/26 00:38:35;;;;;;;;;;;;;;;21.75;61.28;100633.41;7404003;19;1623;-56
2022/09/26 00:41:04;;;;;;;;;;;;;;;21.71;61.01;100623.97;7405630;19;1529;-57
2022/09/26 00:43:34;;;;;;;;;;;;;;;21.69;61.04;100616.03;7404621;19;1427;-56
2022/09/26 00:46:04;;;;;;;;;;;;;;;21.71;61.07;100619.41;7404142;19;1680;-57
2022/09/26 00:48:33;;;;;;;;;;;;;;;21.74;61.08;100629.84;7401443;19;1627;-65
2022/09/26 00:51:05;;;;;;;;;;;;;;;21.74;60.84;100623.63;7404585;19;1538;-65
2022/09/26 00:53:35;;;;;;;;;;;;;;;21.72;60.71;100618.41;7404479;19;1865;-65
2022/09/26 00:56:06;;;;;;;;;;;;;;;21.75;60.92;100622.66;7404836;19;1536;-56
2022/09/26 00:58:37;;;;;;;;;;;;;;;21.77;61.68;100632.25;7402814;19;1530;-56
2022/09/26 01:01:06;;;;;;;;;;;;;;;22.30;59.83;100626.88;7403012;19;1483;-56
2022/09/26 01:03:35;;;;;;;;;;;;;;;22.53;59.39;100619.91;7402347;19;1690;-58
2022/09/26 01:06:06;;;;;;;;;;;;;;;22.91;58.25;100601.47;7403745;19;1514;-56
2022/09/26 01:08:37;;;;;;;;;;;;;;;22.67;58.74;100629.22;7403783;19;1371;-56
2022/09/26 01:11:06;;;;;;;;;;;;;;;22.55;59.42;100615.19;7402291;19;1958;-56
2022/09/26 01:13:35;;;;;;;;;;;;;;;22.79;58.66;100605.50;7403533;19;1864;-56
2022/09/26 01:16:04;;;;;;;;;;;;;;;23.09;58.17;100608.63;7404051;19;1546;-64
2022/09/26 01:18:32;;;;;;;;;;;;;;;23.58;56.78;100603.25;7404255;19;1444;-56
2022/09/26 01:21:06;;;;;;;;;;;;;;;23.42;56.97;100602.25;7403680;19;1536;-64
2022/09/26 01:23:49;;;;;;;;;;;;;;;22.89;58.42;100610.75;7402229;19;2592;-64
2022/09/26 01:26:30;;;;;;;;;;;;;;;22.90;58.49;100589.03;7402633;19;1521;-64
2022/09/26 01:29:15;;;;;;;;;;;;;;;23.19;57.91;100590.44;7403501;19;1538;-56
2022/09/26 01:34:40;;;;;;;;;;;;;;;22.87;58.73;100605.50;7401517;19;1849;-56
2022/09/26 01:37:13;;;;;;;;;;;;;;;22.99;58.59;100609.59;7403004;19;1487;-64
2022/09/26 01:39:47;;;;;;;;;;;;;;;23.31;57.53;100617.94;7403755;19;1518;-56
2022/09/26 01:42:19;;;;;;;;;;;;;;;23.35;57.62;100616.56;7403670;19;1541;-56
2022/09/26 01:44:50;;;;;;;;;;;;;;;22.93;58.53;100610.25;7403804;19;1402;-56
2022/09/26 01:47:25;;;;;;;;;;;;;;;22.96;58.59;100601.84;7402813;19;1636;-64
2022/09/26 01:49:57;;;;;;;;;;;;;;;23.30;57.78;100606.31;7401952;19;1748;-64
2022/09/26 01:52:30;;;;;;;;;;;;;;;23.25;57.57;100618.59;7403253;19;1536;-56
2022/09/26 01:55:01;;;;;;;;;;;;;;;22.92;58.48;100613.97;7401663;19;1859;-64
2022/09/26 01:57:31;;;;;;;;;;;;;;;22.98;58.42;100602.53;7402399;19;1612;-64
2022/09/26 02:00:01;;;;;;;;;;;;;;;23.33;57.93;100605.94;7403790;19;1589;-65
2022/09/26 02:02:35;;;;;;;;;;;;;;;23.22;58.13;100606.28;7379133;19;3411;-38
2022/09/26 02:05:06;;;;;;;;;;;;;;;22.86;59.10;100600.28;7403101;19;1767;-38
2022/09/26 02:07:38;;;;;;;;;;;;;;;23.15;58.07;100602.56;7405823;19;1885;-38
2022/09/26 02:10:13;;;;;;;;;;;;;;;23.34;57.67;100588.75;7406117;19;1776;-38
2022/09/26 02:12:44;;;;;;;;;;;;;;;23.11;58.15;100593.13;7405725;19;1605;-38
2022/09/26 02:15:17;;;;;;;;;;;;;;;22.92;58.56;100578.06;7405454;19;1910;-38
2022/09/26 02:17:55;;;;;;;;;;;;;;;23.17;58.26;100568.19;7405755;19;1450;-38
2022/09/26 02:20:27;;;;;;;;;;;;;;;23.59;57.12;100572.53;7406893;19;1694;-38
2022/09/26 02:22:58;;;;;;;;;;;;;;;23.28;57.81;100569.69;7407496;19;1766;-38
2022/09/26 02:25:27;;;;;;;;;;;;;;;22.93;58.80;100594.06;7405352;19;1840;-38
2022/09/26 02:28:10;;;;;;;;;;;;;;;23.08;58.15;100585.34;7405364;19;1279;-38
2022/09/26 02:30:48;;;;;;;;;;;;;;;23.43;57.48;100585.03;7404982;19;1429;-38
2022/09/26 02:33:23;;;;;;;;;;;;;;;23.27;57.96;100579.63;7406555;19;1565;-38
2022/09/26 02:35:59;;;;;;;;;;;;;;;22.95;58.50;100583.13;7402078;19;1988;-39
2022/09/26 02:38:29;;;;;;;;;;;;;;;23.20;57.87;100567.84;7406137;19;1454;-38
2022/09/26 02:41:05;;;;;;;;;;;;;;;23.49;57.21;100570.00;7405243;19;2030;-39
2022/09/26 02:44:02;;;;;;;;;;;;;;;23.18;57.70;100578.81;7404693;19;1828;-38
2022/09/26 02:46:39;;;;;;;;;;;;;;;23.02;58.31;100576.09;7405355;19;1798;-38
2022/09/26 02:49:23;;;;;;;;;;;;;;;23.22;57.65;100585.56;7405061;19;1812;-39
2022/09/26 02:52:01;;;;;;;;;;;;;;;23.31;57.48;100597.19;7404378;19;1821;-38
2022/09/26 02:54:33;;;;;;;;;;;;;;;23.00;58.09;100578.09;7405785;19;1890;-38
2022/09/26 02:57:10;;;;;;;;;;;;;;;23.05;58.13;100591.09;7405092;19;1916;-38
2022/09/26 02:59:47;;;;;;;;;;;;;;;23.39;57.27;100594.47;7405269;19;1823;-38
2022/09/26 03:02:20;;;;;;;;;;;;;;;23.32;57.74;100588.09;7402982;19;1668;-39
2022/09/26 03:04:56;;;;;;;;;;;;;;;22.99;58.15;100598.78;7405969;19;1549;-38
2022/09/26 03:07:31;;;;;;;;;;;;;;;23.03;58.14;100593.94;7405037;19;2328;-39
2022/09/26 03:10:02;;;;;;;;;;;;;;;23.38;57.13;100581.19;7404643;19;1676;-39
2022/09/26 03:12:40;;;;;;;;;;;;;;;23.29;57.71;100583.00;7404886;19;1745;-39
2022/09/26 03:15:20;;;;;;;;;;;;;;;23.00;58.13;100600.50;7405003;19;1827;-38
2022/09/26 03:17:51;;;;;;;;;;;;;;;23.17;58.15;100573.56;7404710;19;1892;-38
2022/09/26 03:20:23;;;;;;;;;;;;;;;23.42;57.16;100583.34;7405135;19;1531;-38
2022/09/26 03:22:53;;;;;;;;;;;;;;;23.31;57.81;100574.75;7404578;19;1822;-39
2022/09/26 03:25:24;;;;;;;;;;;;;;;23.05;58.33;100573.06;7404641;19;1678;-39
2022/09/26 03:27:53;;;;;;;;;;;;;;;22.88;58.61;100577.56;7396970;19;3522;-39
2022/09/26 03:30:22;;;;;;;;;;;;;;;22.75;59.02;100564.53;7398438;19;1697;-39
2022/09/26 03:32:51;;;;;;;;;;;;;;;22.72;59.08;100580.19;7400095;19;1446;-39
2022/09/26 03:35:22;;;;;;;;;;;;;;;22.66;58.81;100572.78;7402852;19;1858;-39
2022/09/26 03:37:51;;;;;;;;;;;;;;;22.60;59.33;100577.81;7402402;19;1856;-39
2022/09/26 03:40:19;;;;;;;;;;;;;;;22.74;58.91;100567.41;7402441;19;1519;-39
2022/09/26 03:42:47;;;;;;;;;;;;;;;23.03;57.80;100567.81;7401602;19;1683;-39
2022/09/26 03:45:16;;;;;;;;;;;;;;;23.07;57.67;100583.69;7402165;19;1568;-39
2022/09/26 03:47:44;;;;;;;;;;;;;;;22.84;57.90;100590.53;7400526;19;1685;-39
2022/09/26 03:50:13;;;;;;;;;;;;;;;22.64;58.49;100587.28;7404092;19;1826;-39
2022/09/26 03:52:44;;;;;;;;;;;;;;;22.78;58.06;100568.75;7401830;19;1565;-39
2022/09/26 03:55:13;;;;;;;;;;;;;;;22.72;58.28;100564.03;7402952;19;1858;-39
2022/09/26 03:57:41;;;;;;;;;;;;;;;22.59;57.98;100562.66;7402079;19;1891;-39
2022/09/26 04:00:10;;;;;;;;;;;;;;;22.54;58.13;100583.88;7401252;19;1424;-39
2022/09/26 04:02:39;;;;;;;;;;;;;;;22.44;58.40;100566.97;7404768;19;1731;-38
2022/09/26 04:05:07;;;;;;;;;;;;;;;22.38;58.14;100556.84;7404451;19;1650;-38
2022/09/26 04:07:35;;;;;;;;;;;;;;;22.35;58.18;100559.88;7402238;19;1709;-39
2022/09/26 04:10:07;;;;;;;;;;;;;;;22.33;58.40;100564.59;7403311;19;1573;-39
2022/09/26 04:12:35;;;;;;;;;;;;;;;22.33;58.13;100567.28;7402947;19;1918;-39
2022/09/26 04:15:03;;;;;;;;;;;;;;;22.27;58.06;100557.16;7402426;19;1891;-39
2022/09/26 04:17:31;;;;;;;;;;;;;;;22.26;57.81;100572.47;7402359;19;1791;-39
2022/09/26 04:19:59;;;;;;;;;;;;;;;22.26;57.81;100568.94;7399902;19;1397;-39
2022/09/26 04:22:28;;;;;;;;;;;;;;;22.22;58.08;100580.00;7401551;19;1516;-38
2022/09/26 04:24:56;;;;;;;;;;;;;;;22.21;57.87;100586.38;7400757;19;1797;-39
2022/09/26 04:27:27;;;;;;;;;;;;;;;22.16;58.11;100575.28;7400446;19;1763;-39
2022/09/26 04:29:56;;;;;;;;;;;;;;;22.18;57.81;100559.78;7400923;19;1778;-38
2022/09/26 04:32:24;;;;;;;;;;;;;;;22.17;57.89;100560.78;7400969;19;1594;-39
2022/09/26 04:34:52;;;;;;;;;;;;;;;22.16;57.90;100553.72;7401068;19;1861;-39
2022/09/26 04:37:21;;;;;;;;;;;;;;;22.23;57.95;100532.38;7401112;19;1444;-39
2022/09/26 04:39:49;;;;;;;;;;;;;;;22.44;57.46;100548.13;7402117;19;1733;-39
2022/09/26 04:42:17;;;;;;;;;;;;;;;22.48;57.33;100544.09;7402564;19;1667;-39
2022/09/26 04:44:48;;;;;;;;;;;;;;;22.39;57.73;100559.38;7401544;19;1677;-39
2022/09/26 04:47:17;;;;;;;;;;;;;;;22.29;58.45;100544.38;7401850;19;1584;-38
2022/09/26 04:49:45;;;;;;;;;;;;;;;22.17;58.47;100539.25;7400217;19;1601;-38
2022/09/26 04:52:14;;;;;;;;;;;;;;;22.09;58.70;100551.84;7401012;19;1811;-38
2022/09/26 04:54:45;;;;;;;;;;;;;;;22.01;58.84;100563.41;7399782;19;1849;-38
2022/09/26 04:57:14;;;;;;;;;;;;;;;22.08;58.04;100556.34;7401927;19;1720;-38
2022/09/26 04:59:42;;;;;;;;;;;;;;;22.05;56.44;100556.69;7399204;19;1744;-38
2022/09/26 05:02:13;;;;;;;;;;;;;;;22.09;57.99;100557.22;7399067;19;1970;-39
2022/09/26 05:04:42;;;;;;;;;;;;;;;22.01;58.76;100558.84;7400318;19;1414;-39
2022/09/26 05:07:10;;;;;;;;;;;;;;;22.05;58.55;100562.91;7399348;19;2351;-39
2022/09/26 05:09:38;;;;;;;;;;;;;;;22.17;58.03;100579.63;7400474;19;1471;-39
2022/09/26 05:12:07;;;;;;;;;;;;;;;22.12;58.47;100573.88;7399717;19;1722;-39
2022/09/26 05:14:36;;;;;;;;;;;;;;;22.10;58.18;100580.44;7398344;19;2001;-39
2022/09/26 05:17:04;;;;;;;;;;;;;;;22.11;58.57;100576.75;7396595;19;1838;-39
2022/09/26 05:19:35;;;;;;;;;;;;;;;22.07;56.67;100576.22;7400403;19;1665;-39
2022/09/26 05:22:04;;;;;;;;;;;;;;;21.98;57.21;100571.78;7398428;19;1874;-39
2022/09/26 05:27:13;;;;;;;;;;;;;;;21.96;56.70;100574.63;7397663;19;1613;-39
2022/09/26 05:29:41;;;;;;;;;;;;;;;21.92;56.17;100557.13;7400211;19;1772;-39
2022/09/26 05:32:09;;;;;;;;;;;;;;;21.91;56.61;100555.44;7400104;19;1967;-39
2022/09/26 05:34:40;;;;;;;;;;;;;;;21.89;56.38;100556.63;7402582;19;1652;-39
2022/09/26 05:37:08;;;;;;;;;;;;;;;21.91;56.05;100560.00;7404397;19;1869;-39
2022/09/26 05:42:17;;;;;;;;;;;;;;;21.84;55.56;100557.94;7408506;19;1565;-39
2022/09/26 05:44:48;;;;;;;;;;;;;;;21.85;56.21;100554.22;7406621;19;1864;-39
2022/09/26 05:47:16;;;;;;;;;;;;;;;21.96;56.88;100545.03;7407270;19;1637;-39
2022/09/26 05:49:47;;;;;;;;;;;;;;;21.91;56.19;100533.06;7405453;19;1952;-39
2022/09/26 05:52:16;;;;;;;;;;;;;;;21.96;56.55;100530.72;7407711;19;1558;-39
2022/09/26 05:54:44;;;;;;;;;;;;;;;21.93;57.00;100531.91;7408016;19;1110;-39
2022/09/26 05:57:12;;;;;;;;;;;;;;;21.98;56.79;100539.47;7405030;19;1861;-39
2022/09/26 05:59:40;;;;;;;;;;;;;;;21.97;56.76;100537.81;7407796;19;1878;-39
2022/09/26 06:02:09;;;;;;;;;;;;;;;21.97;56.79;100552.09;7402569;19;2064;-39
2022/09/26 06:04:37;;;;;;;;;;;;;;;21.97;56.70;100560.19;7405119;19;1691;-39
2022/09/26 06:07:09;;;;;;;;;;;;;;;21.98;56.39;100550.25;7404169;19;1804;-39
2022/09/26 06:09:37;;;;;;;;;;;;;;;21.98;56.43;100550.25;7406634;19;1833;-39
2022/09/26 06:12:06;;;;;;;;;;;;;;;22.03;56.28;100554.16;7406707;19;1950;-40
2022/09/26 06:14:35;;;;;;;;;;;;;;;22.05;55.93;100552.16;7406996;19;1601;-39
2022/09/26 06:17:03;;;;;;;;;;;;;;;22.05;55.59;100557.53;7404622;19;1865;-40
2022/09/26 06:19:31;;;;;;;;;;;;;;;22.11;55.47;100549.81;7404783;19;1830;-40
2022/09/26 06:21:59;;;;;;;;;;;;;;;22.12;55.96;100570.34;7406051;19;1583;-39
2022/09/26 06:24:30;;;;;;;;;;;;;;;22.11;55.70;100556.03;7405996;19;1839;-39
2022/09/26 06:26:58;;;;;;;;;;;;;;;22.18;54.68;100567.00;7406624;19;1706;-39
2022/09/26 06:29:27;;;;;;;;;;;;;;;22.12;55.35;100557.72;7406110;19;2062;-39
2022/09/26 06:31:55;;;;;;;;;;;;;;;22.16;54.82;100553.72;7406395;19;1700;-39
2022/09/26 06:34:24;;;;;;;;;;;;;;;22.17;54.51;100554.56;7405948;19;1491;-39
2022/09/26 06:36:52;;;;;;;;;;;;;;;22.23;54.63;100554.75;7404071;19;1845;-39
2022/09/26 06:39:21;;;;;;;;;;;;;;;22.27;55.01;100574.16;7406997;19;1174;-39
2022/09/26 06:41:52;;;;;;;;;;;;;;;22.21;55.19;100559.47;7403414;19;2061;-39
2022/09/26 06:44:22;;;;;;;;;;;;;;;22.19;54.23;100542.63;7405675;19;1662;-39
2022/09/26 06:46:50;;;;;;;;;;;;;;;22.19;55.08;100529.16;7403946;19;1674;-39
2022/09/26 06:49:19;;;;;;;;;;;;;;;22.24;55.33;100539.47;7405535;19;1678;-39
2022/09/26 06:51:48;;;;;;;;;;;;;;;22.25;55.28;100551.94;7402233;19;1746;-39
2022/09/26 06:54:16;;;;;;;;;;;;;;;22.26;55.46;100547.38;7403692;19;1608;-39
2022/09/26 06:56:44;;;;;;;;;;;;;;;22.23;54.93;100543.97;7403781;19;1896;-39
2022/09/26 06:59:15;;;;;;;;;;;;;;;22.22;55.19;100541.44;7405115;19;1910;-39
2022/09/26 07:01:44;;;;;;;;;;;;;;;22.28;55.35;100562.38;7403248;19;1749;-39
2022/09/26 07:04:14;;;;;;;;;;;;;;;22.29;55.54;100557.84;7405208;19;1768;-39
2022/09/26 07:06:43;;;;;;;;;;;;;;;22.28;55.52;100556.97;7404606;19;1832;-39
2022/09/26 07:09:11;;;;;;;;;;;;;;;22.31;55.55;100556.66;7403271;19;1579;-39
2022/09/26 07:11:45;;;;;;;;;;;;;;;22.31;55.43;100558.53;7402868;19;1652;-39
2022/09/26 07:14:17;;;;;;;;;;;;;;;22.28;55.72;100556.97;7401142;19;1698;-39
2022/09/26 07:16:45;;;;;;;;;;;;;;;22.29;55.76;100565.94;7401253;19;1849;-39
2022/09/26 07:19:15;;;;;;;;;;;;;;;22.32;55.40;100574.53;7404848;19;1799;-39
2022/09/26 07:21:43;;;;;;;;;;;;;;;22.30;55.43;100563.06;7402511;19;1901;-40
2022/09/26 07:24:12;;;;;;;;;;;;;;;22.31;55.49;100539.66;7403358;19;1733;-39
2022/09/26 07:26:41;;;;;;;;;;;;;;;22.33;55.47;100532.28;7404307;19;1886;-39
2022/09/26 07:29:09;;;;;;;;;;;;;;;22.30;55.72;100544.19;7404065;19;1929;-39
2022/09/26 07:31:40;;;;;;;;;;;;;;;22.28;55.83;100542.66;7402087;19;1557;-39
2022/09/26 07:34:09;;;;;;;;;;;;;;;22.30;55.91;100525.34;7403438;19;1888;-39
2022/09/26 07:36:38;;;;;;;;;;;;;;;22.31;55.57;100534.28;7399379;19;1846;-39
2022/09/26 07:39:07;;;;;;;;;;;;;;;22.29;55.50;100522.81;7404141;19;1673;-39
2022/09/26 07:41:35;;;;;;;;;;;;;;;22.32;55.55;100525.19;7403198;19;1707;-39
2022/09/26 07:44:03;;;;;;;;;;;;;;;22.31;55.25;100510.88;7403465;19;1759;-39
2022/09/26 07:51:56;;;;;;;;;;;;;;;22.36;55.72;100523.84;7401182;19;1865;-40
2022/09/26 07:54:24;;;;;;;;;;;;;;;22.31;55.54;100508.19;7401319;19;1785;-39
2022/09/26 07:56:53;;;;;;;;;;;;;;;22.36;55.58;100518.44;7399998;19;2030;-40
2022/09/26 07:59:21;;;;;;;;;;;;;;;22.38;55.51;100528.09;7400343;19;1904;-39
2022/09/26 08:01:50;;;;;;;;;;;;;;;22.35;55.30;100519.47;7403046;19;1889;-39
2022/09/26 08:04:22;;;;;;;;;;;;;;;22.35;55.64;100514.09;7404135;19;1641;-39
2022/09/26 08:06:52;;;;;;;;;;;;;;;22.38;55.38;100508.34;7404216;19;1593;-40
2022/09/26 08:09:20;;;;;;;;;;;;;;;22.32;55.40;100509.00;7400788;19;1854;-39
2022/09/26 08:11:48;;;;;;;;;;;;;;;22.34;55.55;100498.91;7402454;19;1691;-39
2022/09/26 08:14:17;;;;;;;;;;;;;;;22.32;54.77;100500.94;7403063;19;1777;-39
2022/09/26 08:16:45;;;;;;;;;;;;;;;22.33;55.28;100490.00;7401099;19;1866;-39
2022/09/26 08:19:16;;;;;;;;;;;;;;;22.35;54.97;100481.75;7402893;19;1818;-39
2022/09/26 08:21:47;;;;;;;;;;;;;;;22.34;55.13;100491.69;7401585;19;1764;-39
2022/09/26 08:24:15;;;;;;;;;;;;;;;22.33;55.08;100478.38;7402697;19;1677;-39
2022/09/26 08:26:43;;;;;;;;;;;;;;;22.33;55.11;100489.16;7402475;19;1831;-39
2022/09/26 08:29:11;;;;;;;;;;;;;;;22.33;55.13;100481.09;7402222;19;1825;-39
2022/09/26 08:31:40;;;;;;;;;;;;;;;22.31;54.81;100475.84;7402238;19;1763;-39
2022/09/26 08:34:08;;;;;;;;;;;;;;;22.31;54.41;100475.03;7401557;19;1646;-39
2022/09/26 08:36:37;;;;;;;;;;;;;;;22.30;54.87;100468.75;7400398;19;1907;-39
2022/09/26 08:39:07;;;;;;;;;;;;;;;22.32;53.89;100472.16;7402575;19;1680;-39
2022/09/26 08:41:46;;;;;;;;;;;;;;;22.30;53.95;100473.31;7401815;19;1571;-39
2022/09/26 08:44:25;;;;;;;;;;;;;;;22.34;53.96;100490.84;7400617;19;1674;-40
2022/09/26 08:46:59;;;;;;;;;;;;;;;22.29;53.93;100477.03;7401071;19;1681;-39
2022/09/26 08:49:38;;;;;;;;;;;;;;;22.32;53.86;100479.38;7401709;19;1893;-39
2022/09/26 08:52:08;;;;;;;;;;;;;;;22.28;53.96;100475.34;7399876;19;1495;-39
2022/09/26 08:54:41;;;;;;;;;;;;;;;22.30;53.45;100473.31;7401693;19;1771;-39
2022/09/26 08:57:17;;;;;;;;;;;;;;;22.24;53.68;100462.22;7401220;19;1963;-39
2022/09/26 08:59:47;;;;;;;;;;;;;;;22.24;54.29;100464.91;7401635;19;1649;-39
2022/09/26 09:02:20;;;;;;;;;;;;;;;22.21;53.48;100451.72;7399757;19;1799;-39
2022/09/26 09:04:52;;;;;;;;;;;;;;;22.23;53.56;100452.41;7399370;19;1764;-39
2022/09/26 09:07:22;;;;;;;;;;;;;;;22.24;53.63;100439.78;7400866;19;1812;-39
2022/09/26 09:09:55;;;;;;;;;;;;;;;22.23;53.63;100420.06;7404422;19;1899;-39
2022/09/26 09:12:29;;;;;;;;;;;;;;;22.21;53.71;100418.56;7409670;19;1040;-39
2022/09/26 09:15:04;;;;;;;;;;;;;;;22.23;53.78;100411.16;7405638;19;1771;-39
2022/09/26 09:17:37;;;;;;;;;;;;;;;22.23;53.58;100412.00;7404953;19;1917;-39
2022/09/26 09:20:14;;;;;;;;;;;;;;;22.23;53.57;100414.69;7408974;19;1733;-39
2022/09/26 09:22:55;;;;;;;;;;;;;;;22.24;53.84;100405.66;7410414;19;1468;-39
2022/09/26 09:25:31;;;;;;;;;;;;;;;22.22;53.94;100391.47;7409199;19;1977;-40
2022/09/26 09:28:13;;;;;;;;;;;;;;;22.26;54.04;100404.63;7408560;19;1832;-39
2022/09/26 09:30:42;;;;;;;;;;;;;;;22.24;54.32;100405.66;7408655;19;1659;-39
2022/09/26 09:33:13;;;;;;;;;;;;;;;22.25;54.02;100390.31;7408426;19;2042;-39
2022/09/26 09:35:45;;;;;;;;;;;;;;;22.27;54.08;100379.38;7408217;19;1688;-39
2022/09/26 09:38:16;;;;;;;;;;;;;;;22.23;54.15;100400.38;7403653;19;1874;-39
2022/09/26 09:40:49;;;;;;;;;;;;;;;22.20;54.36;100393.50;7406415;19;1638;-39
2022/09/26 09:43:25;;;;;;;;;;;;;;;22.24;54.38;100392.19;7405356;19;1634;-40
2022/09/26 09:45:55;;;;;;;;;;;;;;;22.17;54.55;100396.50;7406504;19;1735;-40
2022/09/26 09:48:27;;;;;;;;;;;;;;;22.19;54.11;100402.56;7405219;19;1437;-39
2022/09/26 09:51:02;;;;;;;;;;;;;;;22.17;54.00;100388.41;7405342;19;1486;-39
2022/09/26 09:53:40;;;;;;;;;;;;;;;22.20;53.84;100404.25;7407933;19;2008;-39
2022/09/26 09:56:17;;;;;;;;;;;;;;;22.22;53.75;100407.63;7405298;19;1664;-39
2022/09/26 09:58:54;;;;;;;;;;;;;;;22.17;54.11;100399.19;7404478;19;1551;-40
2022/09/26 10:01:26;;;;;;;;;;;;;;;22.20;53.67;100398.88;7403031;19;1673;-39
2022/09/26 10:03:57;;;;;;;;;;;;;;;22.19;54.11;100407.13;7404669;19;1477;-39
2022/09/26 10:06:25;;;;;;;;;;;;;;;22.19;53.67;100391.78;7404718;19;1740;-39
2022/09/26 10:08:54;;;;;;;;;;;;;;;22.20;53.78;100381.84;7405847;19;1978;-39
2022/09/26 10:11:30;;;;;;;;;;;;;;;22.20;53.98;100389.94;7405769;19;1909;-39
2022/09/26 10:14:02;;;;;;;;;;;;;;;22.16;54.13;100378.66;7404974;19;1898;-39
2022/09/26 10:16:33;;;;;;;;;;;;;;;22.15;54.17;100368.91;7406444;19;1854;-39
2022/09/26 10:19:06;;;;;;;;;;;;;;;22.16;53.94;100370.59;7405265;19;1593;-39
2022/09/26 10:21:38;;;;;;;;;;;;;;;22.19;53.84;100381.00;7401256;19;1515;-40
2022/09/26 10:24:07;;;;;;;;;;;;;;;22.20;53.88;100369.25;7406816;19;1610;-39
2022/09/26 10:26:38;;;;;;;;;;;;;;;22.19;54.23;100374.78;7405306;19;1458;-40
2022/09/26 10:29:08;;;;;;;;;;;;;;;22.20;54.09;100371.94;7404223;19;1725;-40
2022/09/26 10:31:39;;;;;;;;;;;;;;;22.20;53.81;100374.63;7404275;19;1739;-39
2022/09/26 10:34:08;;;;;;;;;;;;;;;22.20;54.02;100361.16;7405122;19;1801;-39
2022/09/26 10:36:39;;;;;;;;;;;;;;;22.22;54.12;100350.19;7402920;19;1849;-39
2022/09/26 10:42:02;;;;;;;;;;;;;;;22.26;53.94;100369.59;7407121;19;1602;-39
2022/09/26 10:44:33;;;;;;;;;;;;;;;22.27;54.30;100341.69;7404201;19;1813;-39
2022/09/26 10:47:07;;;;;;;;;;;;;;;22.27;53.75;100355.16;7404456;19;1579;-39
2022/09/26 10:49:39;;;;;;;;;;;;;;;22.29;53.79;100348.56;7404920;19;1430;-39
2022/09/26 10:52:10;;;;;;;;;;;;;;;22.27;54.03;100341.69;7402172;19;1750;-39
2022/09/26 10:54:41;;;;;;;;;;;;;;;22.24;53.94;100341.00;7405639;19;1791;-39
2022/09/26 10:57:19;;;;;;;;;;;;;;;22.23;54.25;100335.75;7403239;19;1842;-39
2022/09/26 10:59:49;;;;;;;;;;;;;;;22.24;54.38;100327.53;7404769;19;2044;-39
2022/09/26 11:02:20;;;;;;;;;;;;;;;22.22;54.05;100320.59;7402945;19;1819;-39
2022/09/26 11:07:33;;;;;;;;;;;;;;;22.24;54.28;100322.16;7406399;19;1562;-40
2022/09/26 11:10:04;;;;;;;;;;;;;;;22.31;54.04;100329.56;7403740;19;1810;-40
2022/09/26 11:12:38;;;;;;;;;;;;;;;22.24;54.28;100324.84;7404038;19;1703;-40
2022/09/26 11:15:08;;;;;;;;;;;;;;;22.39;54.17;100333.09;7404332;19;1587;-40
2022/09/26 11:17:46;;;;;;;;;;;;;;;22.45;53.96;100328.88;7402440;19;1869;-40
2022/09/26 11:20:22;;;;;;;;;;;;;;;22.39;53.99;100311.53;7404400;19;1790;-40
2022/09/26 11:22:54;;;;;;;;;;;;;;;22.40;54.06;100307.84;7402954;19;1501;-40
2022/09/26 11:25:27;;;;;;;;;;;;;;;22.44;53.99;100302.94;7400274;19;1540;-40
2022/09/26 11:28:01;;;;;;;;;;;;;;;22.42;54.17;100300.44;7403329;19;1563;-40
2022/09/26 11:30:31;;;;;;;;;;;;;;;22.48;54.21;100298.03;7401435;19;1426;-40
2022/09/26 11:33:04;;;;;;;;;;;;;;;22.43;54.24;100282.41;7400140;19;1614;-40
2022/09/26 11:35:41;;;;;;;;;;;;;;;22.34;54.56;100291.50;7401792;19;1620;-40
2022/09/26 11:38:17;;;;;;;;;;;;;;;22.32;54.44;100285.44;7403168;19;1855;-40
2022/09/26 11:40:58;;;;;;;;;;;;;;;22.28;54.46;100257.16;7402717;19;1717;-40
2022/09/26 11:43:37;;;;;;;;;;;;;;;22.29;54.63;100283.94;7402529;19;1485;-40
2022/09/26 11:46:15;;;;;;;;;;;;;;;22.28;54.42;100265.22;7403156;19;1632;-40
2022/09/26 11:48:52;;;;;;;;;;;;;;;22.32;54.32;100275.53;7402593;19;1377;-40
2022/09/26 11:51:32;;;;;;;;;;;;;;;22.38;54.28;100287.44;7402457;19;1725;-40
2022/09/26 11:54:11;;;;;;;;;;;;;;;22.30;54.60;100269.44;7402212;19;1557;-40
2022/09/26 11:56:52;;;;;;;;;;;;;;;22.31;54.44;100273.00;7402235;19;1615;-40
2022/09/26 11:59:32;;;;;;;;;;;;;;;22.33;54.20;100273.66;7401049;19;1854;-40
2022/09/26 12:02:10;;;;;;;;;;;;;;;22.31;54.27;100264.91;7402429;19;1669;-40
2022/09/26 12:04:54;;;;;;;;;;;;;;;22.32;54.21;100261.19;7402165;19;1644;-46
2022/09/26 12:07:27;;;;;;;;;;;;;;;22.30;54.21;100268.59;7403026;19;1734;-40
2022/09/26 12:10:01;;;;;;;;;;;;;;;22.35;54.20;100271.63;7402383;19;1592;-40
2022/09/26 12:12:35;;;;;;;;;;;;;;;22.39;53.92;100262.19;7400281;19;1585;-40
2022/09/26 12:15:13;;;;;;;;;;;;;;;22.34;53.83;100272.63;7398289;19;1468;-40
2022/09/26 12:17:51;;;;;;;;;;;;;;;22.32;53.94;100261.19;7397626;19;1850;-40
2022/09/26 12:20:26;;;;;;;;;;;;;;;22.32;54.04;100266.56;7397339;19;1743;-41
2022/09/26 12:23:00;;;;;;;;;;;;;;;22.30;54.07;100258.66;7398025;19;1638;-40
2022/09/26 12:25:38;;;;;;;;;;;;;;;22.32;53.48;100262.06;7396961;19;1477;-40
2022/09/26 12:28:19;;;;;;;;;;;;;;;22.29;53.55;100256.16;7399603;19;1493;-40
2022/09/26 12:30:56;;;;;;;;;;;;;;;22.27;53.84;100247.41;7401501;19;1635;-40
2022/09/26 12:33:35;;;;;;;;;;;;;;;22.30;53.99;100252.44;7401958;19;1611;-40
2022/09/26 12:36:09;;;;;;;;;;;;;;;22.32;54.01;100242.34;7401903;19;1571;-41
2022/09/26 12:38:51;;;;;;;;;;;;;;;22.33;53.76;100249.41;7402508;19;1846;-39
2022/09/26 12:41:31;;;;;;;;;;;;;;;22.28;53.99;100249.91;7402241;19;1665;-40
2022/09/26 12:44:06;;;;;;;;;;;;;;;22.26;53.70;100232.25;7399527;19;1518;-39
2022/09/26 12:46:57;;;;;;;;;;;;;;;22.27;53.67;100220.47;7402177;19;1677;-40
2022/09/26 12:49:33;;;;;;;;;;;;;;;22.25;53.92;100228.72;7401717;19;1893;-40
2022/09/26 12:52:08;;;;;;;;;;;;;;;22.27;53.90;100231.25;7400326;19;1792;-40
2022/09/26 12:54:43;;;;;;;;;;;;;;;22.25;53.76;100220.63;7401577;19;1509;-40
2022/09/26 12:57:20;;;;;;;;;;;;;;;22.24;54.08;100209.03;7401870;19;1883;-40
2022/09/26 12:59:57;;;;;;;;;;;;;;;22.23;54.01;100207.28;7400994;19;1752;-40
2022/09/26 13:02:47;;;;;;;;;;;;;;;22.27;53.34;100204.31;7398464;19;1653;-40
2022/09/26 13:05:33;;;;;;;;;;;;;;;22.37;53.42;100234.59;7399520;19;1567;-40
2022/09/26 13:08:07;;;;;;;;;;;;;;;22.29;53.86;100224.66;7398706;19;1774;-40
2022/09/26 13:10:42;;;;;;;;;;;;;;;22.28;53.92;100222.13;7399625;19;1718;-39
2022/09/26 13:13:23;;;;;;;;;;;;;;;22.26;54.35;100214.22;7401394;19;1395;-40
2022/09/26 13:16:02;;;;;;;;;;;;;;;22.22;54.55;100219.09;7401331;19;2041;-40
2022/09/26 13:18:38;;;;;;;;;;;;;;;22.30;54.26;100220.94;7399820;19;2865;-39
2022/09/26 13:21:10;;;;;;;;;;;;;;;22.34;54.67;100198.06;7400156;19;1519;-39
2022/09/26 13:23:41;;;;;;;;;;;;;;;22.39;54.32;100213.72;7400018;19;1467;-39
2022/09/26 13:26:14;;;;;;;;;;;;;;;22.45;54.78;100202.25;7400457;19;1503;-39
2022/09/26 13:28:45;;;;;;;;;;;;;;;22.49;55.65;100192.81;7397096;19;1936;-40
2022/09/26 13:31:17;;;;;;;;;;;;;;;22.51;56.24;100189.94;7397515;19;1519;-39